Time;durP1;ratioP1;P1;durP2;ratioP2;P2;SDS_P1;SDS_P2;PMS_P1;PMS_P2;Temp;Humidity;BMP_temperature;BMP_pressure;BME280_temperature;BME280_humidity;BME280_pressure;Samples;Min_cycle;Max_cycle;Signal;HPM_P1;HPM_P2
2021/11/24 00:00:11;;;;;;;42.83;19.60;;;;;;;7.30;100.00;101777.41;5198189;28;20217;-78
2021/11/24 00:02:41;;;;;;;45.45;20.95;;;;;;;7.42;100.00;101767.84;5200354;28;20619;-77
2021/11/24 00:05:11;;;;;;;39.97;18.77;;;;;;;7.28;100.00;101775.69;5202713;28;20025;-77
2021/11/24 00:07:42;;;;;;;44.05;18.75;;;;;;;7.47;100.00;101779.06;5202355;28;20033;-78
2021/11/24 00:10:15;;;;;;;41.90;19.05;;;;;;;7.48;100.00;101770.41;5202629;28;20029;-78
2021/11/24 00:12:46;;;;;;;43.95;19.98;;;;;;;7.47;100.00;101771.28;5202368;28;20025;-77
2021/11/24 00:15:16;;;;;;;40.95;20.70;;;;;;;7.45;100.00;101773.03;5200421;28;20029;-77
2021/11/24 00:17:47;;;;;;;43.85;19.83;;;;;;;7.43;100.00;101771.28;5197529;28;20048;-78
2021/11/24 00:20:18;;;;;;;37.67;18.77;;;;;;;7.37;100.00;101768.72;5200620;28;20021;-77
2021/11/24 00:22:48;;;;;;;43.38;20.17;;;;;;;7.53;100.00;101763.44;5200961;28;20101;-77
2021/11/24 00:25:19;;;;;;;42.63;19.50;;;;;;;7.30;100.00;101760.06;5199865;28;20089;-78
2021/11/24 00:27:49;;;;;;;41.00;19.35;;;;;;;7.47;100.00;101763.47;5200122;28;20041;-78
2021/11/24 00:30:20;;;;;;;43.72;19.42;;;;;;;7.28;100.00;101767.00;5198452;28;20025;-77
2021/11/24 00:32:51;;;;;;;43.10;19.98;;;;;;;7.28;100.00;101761.81;5200649;28;20029;-77
2021/11/24 00:35:21;;;;;;;47.65;20.40;;;;;;;7.34;100.00;101764.38;5199608;28;20159;-78
2021/11/24 00:37:52;;;;;;;42.80;19.58;;;;;;;7.45;100.00;101762.63;5201724;28;20089;-77
2021/11/24 00:40:23;;;;;;;40.65;19.17;;;;;;;7.26;100.00;101760.06;5200051;28;20034;-78
2021/11/24 00:42:53;;;;;;;45.60;20.67;;;;;;;7.37;100.00;101758.31;5199489;28;20032;-78
2021/11/24 00:45:23;;;;;;;46.55;20.27;;;;;;;7.28;100.00;101764.41;5197580;28;20018;-79
2021/11/24 00:47:54;;;;;;;45.83;20.65;;;;;;;7.24;100.00;101761.81;5195610;28;20120;-80
2021/11/24 00:50:24;;;;;;;41.80;19.40;;;;;;;7.20;100.00;101754.91;5198426;28;20038;-78
2021/11/24 00:52:55;;;;;;;45.40;19.70;;;;;;;7.29;100.00;101754.88;5200164;28;20049;-78
2021/11/24 00:55:26;;;;;;;47.00;20.02;;;;;;;7.42;100.00;101762.63;5196809;28;20045;-77
2021/11/24 00:57:57;;;;;;;46.13;20.42;;;;;;;7.43;100.00;101746.16;5198151;28;20391;-79
2021/11/24 01:00:28;;;;;;;47.20;20.52;;;;;;;7.32;100.00;101753.13;5195419;28;20021;-79
2021/11/24 01:02:58;;;;;;;42.33;18.95;;;;;;;7.31;100.00;101759.19;5200534;28;20291;-79
2021/11/24 01:05:30;;;;;;;44.40;19.95;;;;;;;7.32;100.00;101758.31;5197102;28;20029;-79
2021/11/24 01:08:01;;;;;;;48.05;20.27;;;;;;;7.36;100.00;101759.19;5192279;28;20373;-79
2021/11/24 01:10:31;;;;;;;44.90;19.63;;;;;;;7.38;100.00;101760.91;5190249;28;20382;-79
2021/11/24 01:13:02;;;;;;;47.83;19.83;;;;;;;7.22;100.00;101755.78;5193713;28;20387;-79
2021/11/24 01:15:32;;;;;;;44.90;18.70;;;;;;;7.30;100.00;101760.06;5196866;28;20101;-80
2021/11/24 01:18:03;;;;;;;44.33;19.00;;;;;;;7.25;100.00;101757.50;5195243;28;20064;-80
2021/11/24 01:20:34;;;;;;;46.88;20.05;;;;;;;7.27;100.00;101763.56;5198685;28;20549;-82
2021/11/24 01:23:04;;;;;;;42.50;18.65;;;;;;;7.35;100.00;101755.72;5200064;28;20032;-80
2021/11/24 01:25:35;;;;;;;44.85;20.00;;;;;;;7.34;100.00;101756.59;5197103;28;20025;-78
2021/11/24 01:28:05;;;;;;;46.25;18.85;;;;;;;7.29;100.00;101762.66;5198735;28;20025;-79
2021/11/24 01:30:36;;;;;;;43.85;18.95;;;;;;;7.24;100.00;101753.19;5195356;28;20088;-80
2021/11/24 01:33:06;;;;;;;44.53;20.13;;;;;;;7.28;100.00;101753.13;5200142;28;20032;-81
2021/11/24 01:35:37;;;;;;;47.72;20.10;;;;;;;7.27;100.00;101746.22;5198560;28;20132;-80
2021/11/24 01:38:07;;;;;;;47.40;19.17;;;;;;;7.28;100.00;101750.53;5200429;28;20032;-78
2021/11/24 01:40:38;;;;;;;45.33;20.02;;;;;;;7.15;100.00;101745.41;5198472;28;20029;-79
2021/11/24 01:43:09;;;;;;;48.42;21.02;;;;;;;7.24;100.00;101745.38;5200530;28;20029;-80
2021/11/24 01:45:39;;;;;;;47.92;20.65;;;;;;;7.27;100.00;101737.56;5198964;28;20017;-81
2021/11/24 01:48:09;;;;;;;44.38;18.25;;;;;;;7.27;100.00;101734.97;5195213;28;20045;-79
2021/11/24 01:50:40;;;;;;;45.22;19.52;;;;;;;7.19;100.00;101734.09;5199438;28;20026;-82
2021/11/24 01:53:10;;;;;;;42.25;18.48;;;;;;;7.17;100.00;101731.53;5200998;28;20025;-80
2021/11/24 01:55:41;;;;;;;40.67;18.40;;;;;;;7.25;100.00;101728.91;5196593;28;20053;-81
2021/11/24 01:58:11;;;;;;;45.05;19.05;;;;;;;7.36;100.00;101722.78;5197151;28;20229;-81
2021/11/24 02:00:42;;;;;;;43.63;18.45;;;;;;;7.35;100.00;101721.06;5195883;28;20068;-80
2021/11/24 02:03:13;;;;;;;44.05;18.50;;;;;;;7.26;100.00;101721.06;5198719;28;20462;-79
2021/11/24 02:05:43;;;;;;;42.88;19.20;;;;;;;7.16;100.00;101718.53;5196899;28;20364;-80
2021/11/24 02:08:13;;;;;;;38.13;17.60;;;;;;;7.18;100.00;101716.78;5199145;28;20200;-80
2021/11/24 02:10:44;;;;;;;38.63;17.48;;;;;;;7.10;100.00;101710.75;5197032;28;20021;-79
2021/11/24 02:13:14;;;;;;;42.13;18.73;;;;;;;7.18;100.00;101716.78;5198826;28;20026;-80
2021/11/24 02:15:45;;;;;;;42.03;18.73;;;;;;;7.13;100.00;101710.75;5196973;28;20061;-79
2021/11/24 02:18:15;;;;;;;44.47;18.85;;;;;;;7.16;100.00;101709.00;5193476;28;20434;-80
2021/11/24 02:20:47;;;;;;;37.38;17.20;;;;;;;7.15;100.00;101707.28;5198686;28;20048;-78
2021/11/24 02:23:18;;;;;;;39.13;18.70;;;;;;;7.14;100.00;101707.28;5198909;28;20053;-81
2021/11/24 02:25:48;;;;;;;43.03;17.25;;;;;;;7.23;100.00;101708.09;5199512;28;20101;-80
2021/11/24 02:28:19;;;;;;;43.88;18.27;;;;;;;7.14;100.00;101707.28;5194362;28;20208;-79
2021/11/24 02:30:51;;;;;;;41.30;17.58;;;;;;;7.12;100.00;101696.03;5194462;28;20064;-79
2021/11/24 02:33:21;;;;;;;43.92;18.00;;;;;;;7.11;100.00;101696.88;5197472;28;20507;-79
2021/11/24 02:35:51;;;;;;;43.63;18.20;;;;;;;7.15;100.00;101698.59;5198171;28;20033;-81
2021/11/24 02:38:22;;;;;;;40.95;17.73;;;;;;;7.17;100.00;101695.13;5196281;28;20057;-81
2021/11/24 02:40:52;;;;;;;45.80;19.48;;;;;;;7.16;100.00;101695.13;5195100;28;20077;-80
2021/11/24 02:43:22;;;;;;;40.38;17.98;;;;;;;7.14;100.00;101683.88;5196861;28;20402;-81
2021/11/24 02:45:53;;;;;;;40.75;17.90;;;;;;;7.11;100.00;101681.28;5194515;28;20028;-79
2021/11/24 02:48:26;;;;;;;45.28;18.77;;;;;;;7.09;100.00;101677.84;5192797;28;20048;-79
2021/11/24 02:50:56;;;;;;;45.03;18.67;;;;;;;7.12;100.00;101675.22;5197641;28;20025;-79
2021/11/24 02:53:29;;;;;;;48.50;19.27;;;;;;;7.07;100.00;101682.19;5199199;28;20085;-81
2021/11/24 02:56:00;;;;;;;43.55;18.05;;;;;;;7.05;100.00;101668.31;5195801;28;20034;-80
2021/11/24 02:58:31;;;;;;;42.78;18.73;;;;;;;7.08;100.00;101669.16;5196198;28;20128;-82
2021/11/24 03:01:02;;;;;;;42.42;18.08;;;;;;;7.22;100.00;101669.09;5194769;28;20483;-81
2021/11/24 03:03:32;;;;;;;42.30;17.92;;;;;;;7.13;100.00;101667.41;5196283;28;20418;-79
2021/11/24 03:06:03;;;;;;;41.72;18.08;;;;;;;7.15;100.00;101667.41;5191783;28;20080;-79
2021/11/24 03:08:33;;;;;;;41.63;19.20;;;;;;;7.22;100.00;101681.22;5196088;28;20454;-79
2021/11/24 03:11:03;;;;;;;41.03;17.48;;;;;;;7.20;100.00;101663.03;5193426;28;20029;-79
2021/11/24 03:13:34;;;;;;;43.13;17.98;;;;;;;7.18;100.00;101672.59;5196184;28;20065;-79
2021/11/24 03:16:04;;;;;;;39.70;17.67;;;;;;;7.15;100.00;101662.22;5192487;28;20030;-79
2021/11/24 03:18:35;;;;;;;42.58;18.40;;;;;;;7.16;100.00;101659.63;5192253;28;20417;-79
2021/11/24 03:21:05;;;;;;;41.47;18.73;;;;;;;7.29;100.00;101653.47;5195026;28;20018;-79
2021/11/24 03:23:35;;;;;;;43.42;18.48;;;;;;;7.26;100.00;101657.84;5192933;28;20033;-79
2021/11/24 03:26:06;;;;;;;41.05;18.08;;;;;;;7.31;100.00;101660.41;5197778;28;20031;-79
2021/11/24 03:28:36;;;;;;;43.47;18.38;;;;;;;7.30;100.00;101656.06;5192931;28;20026;-79
2021/11/24 03:31:06;;;;;;;40.65;17.77;;;;;;;7.25;100.00;101656.09;5196539;28;20039;-79
2021/11/24 03:33:37;;;;;;;44.10;17.33;;;;;;;7.30;100.00;101649.97;5198469;28;20040;-79
2021/11/24 03:36:08;;;;;;;38.55;17.10;;;;;;;7.34;100.00;101652.56;5202113;28;20045;-79
2021/11/24 03:38:38;;;;;;;40.88;18.13;;;;;;;7.34;100.00;101652.56;5198613;28;20029;-79
2021/11/24 03:41:08;;;;;;;42.00;17.27;;;;;;;7.24;100.00;101644.81;5201677;28;20029;-79
2021/11/24 03:43:39;;;;;;;39.33;17.88;;;;;;;7.28;100.00;101651.72;5199503;28;20017;-79
2021/11/24 03:46:09;;;;;;;41.20;18.45;;;;;;;7.39;100.00;101645.59;5199667;28;20021;-79
2021/11/24 03:48:40;;;;;;;41.05;17.67;;;;;;;7.43;100.00;101641.25;5195875;28;20030;-79
2021/11/24 03:51:10;;;;;;;38.88;17.48;;;;;;;7.34;100.00;101636.13;5201945;28;20025;-79
2021/11/24 03:53:41;;;;;;;40.95;16.92;;;;;;;7.34;100.00;101636.13;5198659;28;20030;-79
2021/11/24 03:56:13;;;;;;;35.05;16.55;;;;;;;7.21;100.00;101636.19;5199997;28;20037;-79
2021/11/24 03:58:43;;;;;;;42.13;17.77;;;;;;;7.22;100.00;101624.91;5194315;28;20038;-79
2021/11/24 04:01:13;;;;;;;45.95;18.50;;;;;;;7.21;100.00;101629.25;5197931;28;20032;-79
2021/11/24 04:03:44;;;;;;;44.97;17.38;;;;;;;7.25;100.00;101627.50;5197935;28;20453;-79
2021/11/24 04:06:14;;;;;;;39.33;17.42;;;;;;;7.21;100.00;101623.16;5200729;28;20049;-79
2021/11/24 04:08:45;;;;;;;38.88;17.05;;;;;;;7.13;100.00;101635.38;5199685;28;20394;-79
2021/11/24 04:11:15;;;;;;;44.42;16.63;;;;;;;7.11;100.00;101643.16;5199979;28;20044;-79
2021/11/24 04:13:45;;;;;;;44.03;17.77;;;;;;;7.21;100.00;101639.66;5199571;28;20029;-79
2021/11/24 04:16:16;;;;;;;41.80;17.48;;;;;;;7.21;100.00;101633.56;5197897;28;20493;-79
2021/11/24 04:18:48;;;;;;;38.97;17.38;;;;;;;7.22;100.00;101636.19;5195465;28;20050;-79
2021/11/24 04:21:18;;;;;;;39.92;16.90;;;;;;;7.27;100.00;101633.56;5200782;28;20049;-80
2021/11/24 04:23:49;;;;;;;43.08;17.15;;;;;;;7.22;100.00;101640.50;5200632;28;20292;-80
2021/11/24 04:26:19;;;;;;;38.45;16.70;;;;;;;7.16;100.00;101632.75;5199748;28;20107;-79
2021/11/24 04:28:49;;;;;;;39.97;16.45;;;;;;;7.05;100.00;101631.91;5198687;28;20034;-80
2021/11/24 04:31:20;;;;;;;35.30;15.70;;;;;;;7.05;100.00;101630.19;5199116;28;20399;-79
2021/11/24 04:33:50;;;;;;;35.88;17.13;;;;;;;7.05;100.00;101626.72;5198680;28;20507;-79
2021/11/24 04:36:21;;;;;;;37.75;16.50;;;;;;;7.07;100.00;101628.44;5197546;28;20025;-80
2021/11/24 04:38:51;;;;;;;35.65;15.57;;;;;;;7.10;100.00;101625.81;5198145;28;20472;-79
2021/11/24 04:41:22;;;;;;;33.45;15.68;;;;;;;7.17;100.00;101617.16;5196826;28;20026;-78
2021/11/24 04:43:52;;;;;;;34.22;15.30;;;;;;;7.02;100.00;101627.63;5196180;28;20120;-78
2021/11/24 04:46:22;;;;;;;34.80;16.08;;;;;;;6.98;100.00;101609.44;5196486;28;20029;-80
2021/11/24 04:48:53;;;;;;;32.10;14.27;;;;;;;7.01;100.00;101619.81;5193599;28;20033;-79
2021/11/24 04:51:23;;;;;;;35.40;15.40;;;;;;;6.96;100.00;101617.22;5197208;28;20029;-79
2021/11/24 04:53:53;;;;;;;34.50;15.55;;;;;;;6.98;100.00;101614.63;5197678;28;20163;-78
2021/11/24 04:56:24;;;;;;;33.25;14.70;;;;;;;6.90;100.00;101616.41;5195731;28;20030;-79
2021/11/24 04:58:56;;;;;;;37.25;15.63;;;;;;;6.94;100.00;101615.53;5194691;28;20467;-79
2021/11/24 05:01:27;;;;;;;38.58;16.02;;;;;;;6.93;100.00;101616.41;5194146;28;20108;-79
2021/11/24 05:03:58;;;;;;;35.35;15.15;;;;;;;6.93;100.00;101608.59;5192513;28;20579;-79
2021/11/24 05:06:28;;;;;;;40.17;15.50;;;;;;;6.86;100.00;101602.56;5192947;28;20021;-79
2021/11/24 05:08:59;;;;;;;40.90;15.32;;;;;;;6.84;100.00;101606.03;5196068;28;20111;-79
2021/11/24 05:11:29;;;;;;;33.78;14.95;;;;;;;6.84;100.00;101606.91;5194465;28;20029;-80
2021/11/24 05:14:00;;;;;;;36.08;15.65;;;;;;;6.79;100.00;101603.44;5199524;28;20033;-80
2021/11/24 05:16:35;;;;;;;36.90;15.05;;;;;;;6.80;100.00;101609.53;5195718;28;20029;-81
2021/11/24 05:19:07;;;;;;;39.47;15.23;;;;;;;6.79;100.00;101608.63;5192451;28;20026;-79
2021/11/24 05:21:38;;;;;;;42.63;16.60;;;;;;;6.78;100.00;101612.09;5197657;28;20033;-79
2021/11/24 05:24:08;;;;;;;37.10;15.30;;;;;;;6.86;100.00;101604.28;5201152;28;20017;-79
2021/11/24 05:26:39;;;;;;;33.03;15.35;;;;;;;6.90;100.00;101606.88;5199735;28;20018;-80
2021/11/24 05:29:09;;;;;;;37.65;14.98;;;;;;;6.87;100.00;101600.81;5196298;28;20022;-81
2021/11/24 05:31:40;;;;;;;47.08;17.67;;;;;;;6.85;100.00;101595.66;5196708;28;20408;-79
2021/11/24 05:34:11;;;;;;;37.70;15.07;;;;;;;6.94;100.00;101597.34;5199806;28;20072;-79
2021/11/24 05:36:41;;;;;;;39.00;14.90;;;;;;;6.90;100.00;101596.47;5199793;28;20122;-79
2021/11/24 05:39:12;;;;;;;37.33;15.07;;;;;;;6.79;100.00;101598.25;5199979;28;20049;-80
2021/11/24 05:41:42;;;;;;;37.47;15.32;;;;;;;6.75;100.00;101596.53;5198625;28;20061;-80
2021/11/24 05:44:23;;;;;;;38.55;15.27;;;;;;;6.98;100.00;101604.25;5198057;28;20046;-78
2021/11/24 05:46:58;;;;;;;36.38;15.02;;;;;;;7.13;100.00;101598.97;5194962;28;20048;-77
2021/11/24 05:49:29;;;;;;;32.97;14.63;;;;;;;7.11;100.00;101606.75;5195430;28;20021;-78
2021/11/24 05:52:00;;;;;;;33.35;14.77;;;;;;;7.05;100.00;101600.72;5199145;28;20037;-77
2021/11/24 05:54:30;;;;;;;35.55;14.27;;;;;;;6.98;100.00;101599.94;5196436;28;20096;-78
2021/11/24 05:57:01;;;;;;;32.53;13.90;;;;;;;6.92;100.00;101594.72;5199899;28;20136;-78
2021/11/24 05:59:34;;;;;;;37.78;14.73;;;;;;;6.86;100.00;101594.78;5193192;28;20029;-78
2021/11/24 06:02:04;;;;;;;34.75;14.55;;;;;;;6.97;100.00;101597.31;5191980;28;20093;-77
2021/11/24 06:04:35;;;;;;;38.40;14.57;;;;;;;6.97;100.00;101595.56;5194299;28;20101;-77
2021/11/24 06:07:05;;;;;;;34.17;14.75;;;;;;;6.84;100.00;101590.44;5189959;28;20048;-77
2021/11/24 06:09:35;;;;;;;34.67;14.35;;;;;;;6.89;100.00;101588.69;5200504;28;20498;-77
2021/11/24 06:12:06;;;;;;;34.83;15.52;;;;;;;6.87;100.00;101591.31;5194243;28;20494;-77
2021/11/24 06:14:37;;;;;;;32.53;14.00;;;;;;;6.88;100.00;101589.56;5193181;28;20022;-78
2021/11/24 06:17:07;;;;;;;36.55;14.77;;;;;;;6.93;100.00;101595.63;5194819;28;20353;-77
2021/11/24 06:19:38;;;;;;;34.88;14.52;;;;;;;6.83;100.00;101589.59;5195464;28;20026;-77
2021/11/24 06:22:08;;;;;;;32.65;14.18;;;;;;;6.97;100.00;101585.16;5198672;28;20025;-76
2021/11/24 06:24:39;;;;;;;34.70;14.23;;;;;;;6.98;100.00;101583.44;5197844;28;20022;-78
2021/11/24 06:27:09;;;;;;;37.67;15.30;;;;;;;6.85;100.00;101579.19;5199365;28;20492;-80
2021/11/24 06:29:40;;;;;;;35.28;14.35;;;;;;;6.82;100.00;101581.78;5196105;28;20030;-78
2021/11/24 06:32:10;;;;;;;33.35;13.68;;;;;;;6.84;100.00;101580.06;5199131;28;20087;-76
2021/11/24 06:34:40;;;;;;;35.58;13.82;;;;;;;6.79;100.00;101576.63;5195729;28;20199;-76
2021/11/24 06:37:11;;;;;;;31.67;13.40;;;;;;;6.80;100.00;101578.34;5196756;28;20026;-78
2021/11/24 06:39:41;;;;;;;32.05;14.18;;;;;;;6.87;100.00;101586.09;5196432;28;20092;-78
2021/11/24 06:42:11;;;;;;;41.03;15.10;;;;;;;6.95;100.00;101586.06;5198303;28;20025;-78
2021/11/24 06:44:42;;;;;;;34.80;14.45;;;;;;;6.90;100.00;101586.09;5196581;28;20018;-78
2021/11/24 06:47:14;;;;;;;35.38;14.23;;;;;;;6.92;100.00;101589.53;5193713;28;20275;-80
2021/11/24 06:49:45;;;;;;;37.05;13.80;;;;;;;6.90;100.00;101582.63;5192642;28;20059;-77
2021/11/24 06:52:16;;;;;;;32.55;13.07;;;;;;;6.87;100.00;101586.09;5194311;28;20026;-77
2021/11/24 06:54:46;;;;;;;37.85;15.30;;;;;;;6.75;100.00;101578.34;5194994;28;20028;-78
2021/11/24 06:57:17;;;;;;;31.27;13.23;;;;;;;6.89;100.00;101583.47;5195001;28;20037;-78
2021/11/24 06:59:47;;;;;;;33.30;14.57;;;;;;;6.87;100.00;101587.81;5187521;28;20022;-77
2021/11/24 07:02:17;;;;;;;31.58;12.50;;;;;;;6.86;100.00;101591.28;5192804;28;20036;-77
2021/11/24 07:04:48;;;;;;;30.98;12.27;;;;;;;6.85;100.00;101581.78;5191508;28;20414;-77
2021/11/24 07:07:18;;;;;;;34.25;13.65;;;;;;;6.95;100.00;101586.06;5194314;28;20365;-79
2021/11/24 07:09:49;;;;;;;32.72;13.50;;;;;;;6.85;100.00;101584.38;5197971;28;20427;-78
2021/11/24 07:12:23;;;;;;;29.00;12.40;;;;;;;6.98;100.00;101586.06;5197516;28;20510;-78
2021/11/24 07:14:56;;;;;;;31.00;13.05;;;;;;;6.98;100.00;101588.66;5198385;28;20022;-77
2021/11/24 07:17:26;;;;;;;30.05;13.25;;;;;;;6.98;100.00;101591.25;5193196;28;20100;-77
2021/11/24 07:19:57;;;;;;;33.50;13.55;;;;;;;6.94;100.00;101589.53;5197230;28;20104;-79
2021/11/24 07:22:27;;;;;;;32.30;13.77;;;;;;;6.96;100.00;101587.78;5197119;28;20380;-79
2021/11/24 07:24:58;;;;;;;29.15;12.57;;;;;;;6.95;100.00;101586.06;5199217;28;20025;-78
2021/11/24 07:27:28;;;;;;;31.63;12.75;;;;;;;7.01;100.00;101580.84;5195800;28;20020;-77
2021/11/24 07:29:58;;;;;;;29.58;12.63;;;;;;;6.96;100.00;101593.00;5198050;28;20119;-77
2021/11/24 07:32:29;;;;;;;29.58;12.32;;;;;;;6.97;100.00;101586.91;5196031;28;20018;-78
2021/11/24 07:35:01;;;;;;;30.10;12.52;;;;;;;6.98;100.00;101586.06;5194881;28;20045;-78
2021/11/24 07:37:31;;;;;;;26.98;11.15;;;;;;;7.01;100.00;101586.03;5195487;28;20029;-77
2021/11/24 07:40:03;;;;;;;30.40;12.25;;;;;;;7.02;100.00;101590.34;5200228;28;20021;-78
2021/11/24 07:42:33;;;;;;;34.78;14.00;;;;;;;7.05;100.00;101582.53;5192551;28;20055;-77
2021/11/24 07:45:05;;;;;;;30.63;13.27;;;;;;;7.05;100.00;101585.13;5199710;28;20085;-78
2021/11/24 07:47:36;;;;;;;30.50;12.23;;;;;;;6.98;100.00;101588.66;5194612;28;20025;-77
2021/11/24 07:50:07;;;;;;;30.50;12.65;;;;;;;6.96;100.00;101593.00;5197559;28;20098;-77
2021/11/24 07:52:38;;;;;;;28.02;11.98;;;;;;;6.97;100.00;101584.31;5196461;28;20038;-79
2021/11/24 07:55:08;;;;;;;32.88;12.95;;;;;;;7.00;100.00;101586.91;5199248;28;20029;-77
2021/11/24 07:57:39;;;;;;;30.48;12.43;;;;;;;6.98;100.00;101573.94;5196725;28;20022;-77
2021/11/24 08:00:11;;;;;;;28.25;11.80;;;;;;;7.06;100.00;101582.53;5200101;28;20026;-78
2021/11/24 08:02:42;;;;;;;25.42;11.00;;;;;;;7.14;100.00;101578.16;5197986;28;20100;-78
2021/11/24 08:05:13;;;;;;;27.92;11.95;;;;;;;7.12;100.00;101577.31;5196871;28;20026;-78
2021/11/24 08:07:44;;;;;;;26.30;11.32;;;;;;;7.14;100.00;101575.56;5198187;28;20114;-78
2021/11/24 08:10:14;;;;;;;26.27;11.32;;;;;;;7.15;100.00;101581.63;5199601;28;20021;-77
2021/11/24 08:12:44;;;;;;;26.23;10.90;;;;;;;7.15;100.00;101572.13;5198910;28;20029;-79
2021/11/24 08:15:15;;;;;;;29.90;11.43;;;;;;;7.22;100.00;101578.97;5199030;28;20049;-77
2021/11/24 08:17:45;;;;;;;31.17;12.88;;;;;;;7.29;100.00;101570.25;5198402;28;20115;-76
2021/11/24 08:20:16;;;;;;;28.80;12.55;;;;;;;7.26;100.00;101572.03;5202281;28;20034;-77
2021/11/24 08:22:46;;;;;;;25.83;11.85;;;;;;;7.27;100.00;101560.75;5202306;28;20046;-79
2021/11/24 08:25:17;;;;;;;32.28;12.27;;;;;;;7.26;100.00;101569.44;5202431;28;20029;-78
2021/11/24 08:27:47;;;;;;;33.60;13.05;;;;;;;7.24;100.00;101555.59;5202202;28;20022;-77
2021/11/24 08:30:18;;;;;;;31.27;13.07;;;;;;;7.28;100.00;101548.63;5202447;28;20029;-77
2021/11/24 08:32:51;;;;;;;28.48;11.63;;;;;;;7.31;100.00;101550.31;5202595;28;20479;-77
2021/11/24 08:35:23;;;;;;;28.60;12.05;;;;;;;7.44;100.00;101545.03;5196321;28;20033;-76
2021/11/24 08:37:53;;;;;;;28.50;11.27;;;;;;;7.49;100.00;101542.41;5200207;28;20120;-77
2021/11/24 08:40:24;;;;;;;29.95;12.32;;;;;;;7.51;100.00;101545.84;5200284;28;20056;-77
2021/11/24 08:42:55;;;;;;;28.60;12.15;;;;;;;7.35;100.00;101547.69;5201875;28;20089;-78
2021/11/24 08:45:25;;;;;;;29.58;12.63;;;;;;;7.34;100.00;101545.13;5200015;28;20037;-78
2021/11/24 08:47:56;;;;;;;29.63;12.10;;;;;;;7.48;100.00;101540.66;5195335;28;20026;-77
2021/11/24 08:50:26;;;;;;;29.42;12.25;;;;;;;7.41;100.00;101537.25;5200407;28;20033;-77
2021/11/24 08:52:57;;;;;;;25.77;11.73;;;;;;;7.45;100.00;101541.56;5200571;28;20060;-77
2021/11/24 08:55:28;;;;;;;25.30;12.00;;;;;;;7.50;100.00;101547.59;5199220;28;20105;-77
2021/11/24 08:58:00;;;;;;;27.60;11.75;;;;;;;7.50;100.00;101542.38;5202527;28;20033;-78
2021/11/24 09:00:30;;;;;;;26.25;11.85;;;;;;;7.52;100.00;101532.81;5199488;28;20025;-77
2021/11/24 09:03:00;;;;;;;25.92;11.32;;;;;;;7.51;100.00;101533.69;5201325;28;20032;-77
2021/11/24 09:05:32;;;;;;;25.48;11.65;;;;;;;7.53;100.00;101524.13;5195958;28;20370;-77
2021/11/24 09:08:03;;;;;;;30.58;12.15;;;;;;;7.54;100.00;101536.28;5193220;28;20038;-77
2021/11/24 09:10:34;;;;;;;27.70;11.98;;;;;;;7.60;100.00;101524.97;5202547;28;20451;-77
2021/11/24 09:13:05;;;;;;;24.25;11.57;;;;;;;7.59;100.00;101523.22;5197995;28;20021;-78
2021/11/24 09:15:35;;;;;;;26.95;11.07;;;;;;;7.61;100.00;101522.34;5201341;28;20030;-79
2021/11/24 09:18:06;;;;;;;22.95;10.93;;;;;;;7.68;100.00;101515.38;5201327;28;20022;-77
2021/11/24 09:20:36;;;;;;;22.25;10.07;;;;;;;7.75;100.00;101514.41;5196558;28;20030;-78
2021/11/24 09:23:07;;;;;;;24.45;10.13;;;;;;;7.79;100.00;101516.13;5197070;28;20043;-77
2021/11/24 09:25:47;;;;;;;24.13;9.57;;;;;;;7.97;100.00;101518.53;5199250;28;20030;-78
2021/11/24 09:28:20;;;;;;;24.33;10.40;;;;;;;8.05;100.00;101521.94;5198356;28;20404;-77
2021/11/24 09:30:51;;;;;;;26.27;10.63;;;;;;;7.87;100.00;101522.97;5200659;28;20049;-78
2021/11/24 09:33:21;;;;;;;21.42;9.63;;;;;;;7.92;100.00;101526.41;5201570;28;20056;-77
2021/11/24 09:35:51;;;;;;;20.52;9.82;;;;;;;7.83;100.00;101517.81;5196901;28;20123;-77
2021/11/24 09:38:23;;;;;;;22.60;9.75;;;;;;;7.79;100.00;101519.59;5200601;28;20040;-76
2021/11/24 09:40:55;;;;;;;19.65;9.25;;;;;;;7.90;100.00;101517.72;5201588;28;20491;-78
2021/11/24 09:43:29;;;;;;;22.77;9.38;;;;;;;7.87;100.00;101520.38;5199587;28;20045;-77
2021/11/24 09:46:01;;;;;;;19.55;9.48;;;;;;;7.90;100.00;101515.13;5199147;28;20061;-77
2021/11/24 09:48:32;;;;;;;21.63;9.18;;;;;;;7.84;100.00;101519.56;5197294;28;20045;-78
2021/11/24 09:51:03;;;;;;;22.27;9.55;;;;;;;8.01;100.00;101513.28;5194759;28;20030;-76
2021/11/24 09:53:34;;;;;;;21.85;9.98;;;;;;;7.99;100.00;101514.16;5201252;28;20037;-79
2021/11/24 09:56:05;;;;;;;25.38;9.80;;;;;;;7.92;100.00;101505.59;5206782;28;20021;-78
2021/11/24 09:58:35;;;;;;;22.92;9.65;;;;;;;8.01;100.00;101500.28;5210068;28;20029;-78
2021/11/24 10:01:07;;;;;;;20.92;9.65;;;;;;;7.97;100.00;101506.41;5207125;28;20018;-79
2021/11/24 10:03:37;;;;;;;19.50;9.27;;;;;;;8.04;100.00;101500.22;5208684;28;20025;-77
2021/11/24 10:06:08;;;;;;;18.98;8.48;;;;;;;8.25;100.00;101489.63;5203052;28;20154;-79
2021/11/24 10:08:38;;;;;;;20.02;9.18;;;;;;;8.34;100.00;101492.13;5208146;28;20090;-79
2021/11/24 10:11:09;;;;;;;19.30;9.15;;;;;;;8.35;100.00;101488.63;5208982;28;20056;-78
2021/11/24 10:13:39;;;;;;;22.13;9.43;;;;;;;8.16;100.00;101489.69;5203081;28;20480;-77
2021/11/24 10:16:21;;;;;;;18.83;9.13;;;;;;;8.38;100.00;101483.38;5203607;28;20034;-77
2021/11/24 10:19:09;;;;;;;18.88;8.98;;;;;;;8.43;100.00;101480.72;5200977;28;20056;-77
2021/11/24 10:21:55;;;;;;;19.85;9.40;;;;;;;8.28;100.00;101478.31;5203767;28;20029;-78
2021/11/24 10:24:31;;;;;;;18.48;8.48;;;;;;;8.21;100.00;101474.91;5205981;28;20036;-79
2021/11/24 10:27:05;;;;;;;19.73;8.80;;;;;;;8.37;100.00;101473.84;5209682;28;20029;-77
2021/11/24 10:29:38;;;;;;;16.92;7.85;;;;;;;8.40;100.00;101463.38;5201211;28;20026;-78
2021/11/24 10:32:10;;;;;;;13.38;5.78;;;;;;;8.43;100.00;101447.75;5202154;28;20018;-78
2021/11/24 10:34:42;;;;;;;9.98;4.78;;;;;;;8.54;100.00;101453.66;5201369;28;20036;-77
2021/11/24 10:37:16;;;;;;;11.20;5.13;;;;;;;8.54;100.00;101455.41;5205365;28;20030;-78
2021/11/24 10:40:02;;;;;;;14.15;5.22;;;;;;;8.60;100.00;101452.72;5205613;28;20017;-78
2021/11/24 10:42:33;;;;;;;14.32;6.13;;;;;;;8.69;100.00;101444.78;5199614;28;20033;-78
2021/11/24 10:45:19;;;;;;;16.35;6.25;;;;;;;8.65;100.00;101441.34;5208434;28;20075;-78
2021/11/24 10:47:57;;;;;;;12.55;5.78;;;;;;;8.64;100.00;101434.41;5201689;28;20101;-77
2021/11/24 10:50:33;;;;;;;12.07;5.63;;;;;;;8.58;100.00;101434.50;5205952;28;20026;-77
2021/11/24 10:53:06;;;;;;;10.98;4.90;;;;;;;8.60;100.00;101430.16;5200778;28;20040;-80
2021/11/24 10:55:37;;;;;;;9.50;4.70;;;;;;;8.61;100.00;101429.25;5207828;28;20037;-77
2021/11/24 10:58:18;;;;;;;12.93;4.85;;;;;;;8.59;100.00;101414.53;5205608;28;20026;-78
2021/11/24 11:00:51;;;;;;;7.95;3.70;;;;;;;8.56;100.00;101417.19;5206116;28;20032;-77
2021/11/24 11:03:33;;;;;;;7.88;3.67;;;;;;;8.60;100.00;101411.03;5201471;28;20025;-78
2021/11/24 11:06:04;;;;;;;8.85;3.30;;;;;;;8.46;100.00;101413.84;5200301;28;20033;-78
2021/11/24 11:08:34;;;;;;;7.70;3.25;;;;;;;8.67;100.00;101403.09;5207415;28;20037;-78
2021/11/24 11:11:05;;;;;;;4.97;2.22;;;;;;;8.46;100.00;101403.41;5203999;28;20125;-78
2021/11/24 11:13:36;;;;;;;4.18;2.05;;;;;;;8.57;100.00;101401.50;5198012;28;20089;-77
2021/11/24 11:16:06;;;;;;;3.53;1.85;;;;;;;8.51;100.00;101398.13;5197441;28;20050;-79
2021/11/24 11:18:39;;;;;;;4.55;1.90;;;;;;;8.47;100.00;101405.13;5201184;28;20029;-77
2021/11/24 11:21:14;;;;;;;2.67;1.20;;;;;;;8.43;100.00;101393.06;5206731;28;20025;-78
2021/11/24 11:23:47;;;;;;;2.45;1.10;;;;;;;8.46;100.00;101379.97;5205331;28;20423;-78
2021/11/24 11:26:20;;;;;;;1.85;0.98;;;;;;;8.32;100.00;101381.91;5206460;28;20025;-79
2021/11/24 11:28:53;;;;;;;3.25;1.02;;;;;;;8.54;100.00;101377.25;5204664;28;20129;-78